Current Conditions
Partly Cloudy
Conditions



Pressure
1010.92 (hPa) - 29.85 (inHG)
Visibility

10.0 (km) - 6.2 (miles)
Temperature
28  °C
Temperature
23  °C
Dewpoint
74  %
 Humidity
Wind Speed
4  kts
5  mph
8  km/h
2.2  m/s
Wind Direction
N
45°
E
90°
135°
S
180°
225°
W
270°
315°
 210°

South South
West
Airport Data
WSSL
Seletar Airport
Metar :WSSL 280330Z 21004KT 180V250 9999 FEW016 FEW018TCU BKN150 28/23 Q1011
Thu 28th October 05:30 am
Raw Metar Info
Raw METAR is the most common format in the world for the transmission of observational weather data. It is highly standardized through the International Civil Aviation Organization (ICAO), which allows it to be understood throughout most of the world.
API Info
Data Provided by
https://www.checkwx.com/weather/WSSL

Aviation Weather providing METAR, TAF, AIRMET, SIGMET and OUTLOOK Weather Reports
© Info
CSS/SVG/PHP scripts were developed by weather34 for use in the weather34 template © 2015-2022

Guide Info provided by Metar-Wikipedia